sensor_id;sensor_type;location;lat;lon;timestamp;P1;durP1;ratioP1;P2;durP2;ratioP2
23384;SDS011;11865;45.394;10.978;2023-09-19T00:00:39;14.35;;;8.10;;
23384;SDS011;11865;45.394;10.978;2023-09-19T00:03:09;17.30;;;8.68;;
23384;SDS011;11865;45.394;10.978;2023-09-19T00:05:37;15.75;;;8.68;;
23384;SDS011;11865;45.394;10.978;2023-09-19T00:08:05;18.58;;;10.40;;
23384;SDS011;11865;45.394;10.978;2023-09-19T00:10:34;18.15;;;8.48;;
23384;SDS011;11865;45.394;10.978;2023-09-19T00:13:06;18.88;;;10.10;;
23384;SDS011;11865;45.394;10.978;2023-09-19T00:15:42;21.70;;;9.50;;
23384;SDS011;11865;45.394;10.978;2023-09-19T00:18:19;20.20;;;9.88;;
23384;SDS011;11865;45.394;10.978;2023-09-19T00:20:49;22.25;;;9.10;;
23384;SDS011;11865;45.394;10.978;2023-09-19T00:23:19;15.88;;;8.98;;
23384;SDS011;11865;45.394;10.978;2023-09-19T00:25:47;20.25;;;9.15;;
23384;SDS011;11865;45.394;10.978;2023-09-19T00:28:16;20.30;;;8.40;;
23384;SDS011;11865;45.394;10.978;2023-09-19T00:30:45;20.73;;;8.70;;
23384;SDS011;11865;45.394;10.978;2023-09-19T00:33:20;19.80;;;8.77;;
23384;SDS011;11865;45.394;10.978;2023-09-19T00:35:48;16.05;;;7.43;;
23384;SDS011;11865;45.394;10.978;2023-09-19T00:38:17;17.90;;;8.27;;
23384;SDS011;11865;45.394;10.978;2023-09-19T00:40:50;17.40;;;7.45;;
23384;SDS011;11865;45.394;10.978;2023-09-19T00:43:22;15.27;;;7.25;;
23384;SDS011;11865;45.394;10.978;2023-09-19T00:45:52;14.25;;;7.32;;
23384;SDS011;11865;45.394;10.978;2023-09-19T00:48:21;16.45;;;7.85;;
23384;SDS011;11865;45.394;10.978;2023-09-19T00:50:52;13.90;;;6.93;;
23384;SDS011;11865;45.394;10.978;2023-09-19T00:53:22;14.65;;;7.45;;
23384;SDS011;11865;45.394;10.978;2023-09-19T00:55:53;15.93;;;7.95;;
23384;SDS011;11865;45.394;10.978;2023-09-19T00:58:23;17.50;;;7.22;;
23384;SDS011;11865;45.394;10.978;2023-09-19T01:00:50;18.73;;;7.47;;
23384;SDS011;11865;45.394;10.978;2023-09-19T01:03:20;12.77;;;7.40;;
23384;SDS011;11865;45.394;10.978;2023-09-19T01:05:48;16.52;;;7.10;;
23384;SDS011;11865;45.394;10.978;2023-09-19T01:08:18;15.68;;;6.97;;
23384;SDS011;11865;45.394;10.978;2023-09-19T01:10:51;15.23;;;7.25;;
23384;SDS011;11865;45.394;10.978;2023-09-19T01:13:23;12.73;;;6.90;;
23384;SDS011;11865;45.394;10.978;2023-09-19T01:16:03;15.48;;;7.55;;
23384;SDS011;11865;45.394;10.978;2023-09-19T01:21:33;13.73;;;6.53;;
23384;SDS011;11865;45.394;10.978;2023-09-19T01:30:10;10.52;;;5.95;;
23384;SDS011;11865;45.394;10.978;2023-09-19T01:32:41;14.90;;;6.78;;
23384;SDS011;11865;45.394;10.978;2023-09-19T01:35:10;17.38;;;6.68;;
23384;SDS011;11865;45.394;10.978;2023-09-19T01:37:40;14.05;;;6.45;;
23384;SDS011;11865;45.394;10.978;2023-09-19T01:40:10;17.92;;;6.95;;
23384;SDS011;11865;45.394;10.978;2023-09-19T01:48:42;12.55;;;6.13;;
23384;SDS011;11865;45.394;10.978;2023-09-19T01:51:45;16.13;;;6.88;;
23384;SDS011;11865;45.394;10.978;2023-09-19T01:54:33;14.93;;;7.10;;
23384;SDS011;11865;45.394;10.978;2023-09-19T01:59:59;14.13;;;7.35;;
23384;SDS011;11865;45.394;10.978;2023-09-19T02:02:44;12.38;;;6.45;;
23384;SDS011;11865;45.394;10.978;2023-09-19T02:05:22;20.73;;;7.60;;
23384;SDS011;11865;45.394;10.978;2023-09-19T02:07:51;17.23;;;8.38;;
23384;SDS011;11865;45.394;10.978;2023-09-19T02:10:20;15.75;;;7.38;;
23384;SDS011;11865;45.394;10.978;2023-09-19T02:12:48;13.82;;;8.00;;
23384;SDS011;11865;45.394;10.978;2023-09-19T02:15:16;24.52;;;8.90;;
23384;SDS011;11865;45.394;10.978;2023-09-19T02:17:44;18.35;;;8.38;;
23384;SDS011;11865;45.394;10.978;2023-09-19T02:20:13;15.18;;;7.95;;
23384;SDS011;11865;45.394;10.978;2023-09-19T02:22:44;15.25;;;7.55;;
23384;SDS011;11865;45.394;10.978;2023-09-19T02:25:11;22.73;;;7.47;;
23384;SDS011;11865;45.394;10.978;2023-09-19T02:27:40;17.17;;;7.47;;
23384;SDS011;11865;45.394;10.978;2023-09-19T02:30:08;20.13;;;7.85;;
23384;SDS011;11865;45.394;10.978;2023-09-19T02:32:36;19.52;;;8.55;;
23384;SDS011;11865;45.394;10.978;2023-09-19T02:35:06;18.52;;;8.48;;
23384;SDS011;11865;45.394;10.978;2023-09-19T02:37:34;23.83;;;8.63;;
23384;SDS011;11865;45.394;10.978;2023-09-19T02:40:02;18.88;;;7.90;;
23384;SDS011;11865;45.394;10.978;2023-09-19T02:42:46;23.77;;;8.10;;
23384;SDS011;11865;45.394;10.978;2023-09-19T02:45:16;21.10;;;8.63;;
23384;SDS011;11865;45.394;10.978;2023-09-19T02:47:45;16.83;;;8.55;;
23384;SDS011;11865;45.394;10.978;2023-09-19T02:50:14;16.95;;;8.13;;
23384;SDS011;11865;45.394;10.978;2023-09-19T02:52:43;16.67;;;8.38;;
23384;SDS011;11865;45.394;10.978;2023-09-19T02:55:11;16.42;;;7.72;;
23384;SDS011;11865;45.394;10.978;2023-09-19T02:57:49;15.43;;;8.40;;
23384;SDS011;11865;45.394;10.978;2023-09-19T03:00:18;15.80;;;8.15;;
23384;SDS011;11865;45.394;10.978;2023-09-19T03:02:56;17.27;;;7.50;;
23384;SDS011;11865;45.394;10.978;2023-09-19T03:05:24;19.23;;;8.88;;
23384;SDS011;11865;45.394;10.978;2023-09-19T03:07:53;24.70;;;9.45;;
23384;SDS011;11865;45.394;10.978;2023-09-19T03:10:22;18.88;;;9.55;;
23384;SDS011;11865;45.394;10.978;2023-09-19T03:12:52;25.40;;;8.82;;
23384;SDS011;11865;45.394;10.978;2023-09-19T03:15:20;20.55;;;9.05;;
23384;SDS011;11865;45.394;10.978;2023-09-19T03:17:50;18.00;;;8.75;;
23384;SDS011;11865;45.394;10.978;2023-09-19T03:20:22;17.83;;;9.60;;
23384;SDS011;11865;45.394;10.978;2023-09-19T03:22:50;17.58;;;9.13;;
23384;SDS011;11865;45.394;10.978;2023-09-19T03:25:19;18.33;;;9.07;;
23384;SDS011;11865;45.394;10.978;2023-09-19T03:27:51;19.60;;;9.57;;
23384;SDS011;11865;45.394;10.978;2023-09-19T03:30:20;23.55;;;9.82;;
23384;SDS011;11865;45.394;10.978;2023-09-19T03:32:48;23.02;;;9.45;;
23384;SDS011;11865;45.394;10.978;2023-09-19T03:35:17;19.35;;;10.15;;
23384;SDS011;11865;45.394;10.978;2023-09-19T03:37:46;23.35;;;10.80;;
23384;SDS011;11865;45.394;10.978;2023-09-19T03:40:14;24.30;;;9.80;;
23384;SDS011;11865;45.394;10.978;2023-09-19T03:42:43;21.50;;;10.95;;
23384;SDS011;11865;45.394;10.978;2023-09-19T03:45:12;20.58;;;9.27;;
23384;SDS011;11865;45.394;10.978;2023-09-19T03:48:01;29.33;;;11.45;;
23384;SDS011;11865;45.394;10.978;2023-09-19T03:50:28;19.05;;;10.05;;
23384;SDS011;11865;45.394;10.978;2023-09-19T03:52:56;24.77;;;10.40;;
23384;SDS011;11865;45.394;10.978;2023-09-19T03:55:24;22.10;;;9.48;;
23384;SDS011;11865;45.394;10.978;2023-09-19T03:57:51;18.95;;;9.95;;
23384;SDS011;11865;45.394;10.978;2023-09-19T04:00:19;17.75;;;9.07;;
23384;SDS011;11865;45.394;10.978;2023-09-19T04:02:48;22.60;;;10.00;;
23384;SDS011;11865;45.394;10.978;2023-09-19T04:05:16;16.27;;;9.73;;
23384;SDS011;11865;45.394;10.978;2023-09-19T04:07:45;17.38;;;9.13;;
23384;SDS011;11865;45.394;10.978;2023-09-19T04:10:13;18.40;;;9.25;;
23384;SDS011;11865;45.394;10.978;2023-09-19T04:12:54;19.30;;;8.95;;
23384;SDS011;11865;45.394;10.978;2023-09-19T04:15:22;19.83;;;10.25;;
23384;SDS011;11865;45.394;10.978;2023-09-19T04:17:53;15.43;;;8.70;;
23384;SDS011;11865;45.394;10.978;2023-09-19T04:20:21;18.88;;;8.57;;
23384;SDS011;11865;45.394;10.978;2023-09-19T04:22:51;23.13;;;8.25;;
23384;SDS011;11865;45.394;10.978;2023-09-19T04:25:19;20.70;;;8.13;;
23384;SDS011;11865;45.394;10.978;2023-09-19T04:27:47;21.77;;;8.27;;
23384;SDS011;11865;45.394;10.978;2023-09-19T04:30:15;19.98;;;8.20;;
23384;SDS011;11865;45.394;10.978;2023-09-19T04:32:43;17.88;;;7.70;;
23384;SDS011;11865;45.394;10.978;2023-09-19T04:35:10;15.48;;;8.02;;
23384;SDS011;11865;45.394;10.978;2023-09-19T04:37:41;22.25;;;8.13;;
23384;SDS011;11865;45.394;10.978;2023-09-19T04:40:09;15.88;;;7.85;;
23384;SDS011;11865;45.394;10.978;2023-09-19T04:45:09;16.50;;;6.82;;
23384;SDS011;11865;45.394;10.978;2023-09-19T04:47:37;17.95;;;8.32;;
23384;SDS011;11865;45.394;10.978;2023-09-19T04:50:09;16.83;;;7.38;;
23384;SDS011;11865;45.394;10.978;2023-09-19T04:52:41;16.60;;;7.78;;
23384;SDS011;11865;45.394;10.978;2023-09-19T04:55:20;16.08;;;8.02;;
23384;SDS011;11865;45.394;10.978;2023-09-19T04:57:49;15.60;;;8.60;;
23384;SDS011;11865;45.394;10.978;2023-09-19T05:00:17;18.42;;;7.88;;
23384;SDS011;11865;45.394;10.978;2023-09-19T05:02:46;15.90;;;7.72;;
23384;SDS011;11865;45.394;10.978;2023-09-19T05:05:19;15.07;;;8.48;;
23384;SDS011;11865;45.394;10.978;2023-09-19T05:07:47;18.17;;;9.13;;
23384;SDS011;11865;45.394;10.978;2023-09-19T05:10:15;17.20;;;9.40;;
23384;SDS011;11865;45.394;10.978;2023-09-19T05:12:45;17.05;;;9.02;;
23384;SDS011;11865;45.394;10.978;2023-09-19T05:15:15;20.67;;;9.10;;
23384;SDS011;11865;45.394;10.978;2023-09-19T05:17:50;17.38;;;8.27;;
23384;SDS011;11865;45.394;10.978;2023-09-19T05:20:24;17.13;;;8.48;;
23384;SDS011;11865;45.394;10.978;2023-09-19T05:23:03;25.17;;;8.77;;
23384;SDS011;11865;45.394;10.978;2023-09-19T05:25:36;16.92;;;9.30;;
23384;SDS011;11865;45.394;10.978;2023-09-19T05:28:06;20.50;;;9.30;;
23384;SDS011;11865;45.394;10.978;2023-09-19T05:30:35;19.25;;;9.02;;
23384;SDS011;11865;45.394;10.978;2023-09-19T05:33:03;25.48;;;11.77;;
23384;SDS011;11865;45.394;10.978;2023-09-19T05:35:31;21.02;;;12.65;;
23384;SDS011;11865;45.394;10.978;2023-09-19T05:38:00;21.73;;;12.18;;
23384;SDS011;11865;45.394;10.978;2023-09-19T05:40:27;25.58;;;13.18;;
23384;SDS011;11865;45.394;10.978;2023-09-19T05:42:55;20.95;;;12.55;;
23384;SDS011;11865;45.394;10.978;2023-09-19T05:45:22;25.35;;;12.20;;
23384;SDS011;11865;45.394;10.978;2023-09-19T05:47:50;25.98;;;11.75;;
23384;SDS011;11865;45.394;10.978;2023-09-19T05:50:23;22.05;;;11.27;;
23384;SDS011;11865;45.394;10.978;2023-09-19T05:52:52;22.42;;;11.15;;
23384;SDS011;11865;45.394;10.978;2023-09-19T05:55:20;23.40;;;10.60;;
23384;SDS011;11865;45.394;10.978;2023-09-19T05:57:51;20.80;;;11.32;;
23384;SDS011;11865;45.394;10.978;2023-09-19T06:00:22;21.23;;;11.15;;
23384;SDS011;11865;45.394;10.978;2023-09-19T06:05:20;18.83;;;9.82;;
23384;SDS011;11865;45.394;10.978;2023-09-19T06:07:48;19.50;;;8.75;;
23384;SDS011;11865;45.394;10.978;2023-09-19T06:10:17;17.77;;;8.68;;
23384;SDS011;11865;45.394;10.978;2023-09-19T06:12:47;17.63;;;8.85;;
23384;SDS011;11865;45.394;10.978;2023-09-19T06:15:15;19.60;;;10.35;;
23384;SDS011;11865;45.394;10.978;2023-09-19T06:17:46;17.60;;;10.13;;
23384;SDS011;11865;45.394;10.978;2023-09-19T06:20:17;17.48;;;8.60;;
23384;SDS011;11865;45.394;10.978;2023-09-19T06:22:47;14.80;;;7.22;;
23384;SDS011;11865;45.394;10.978;2023-09-19T06:25:15;14.02;;;6.78;;
23384;SDS011;11865;45.394;10.978;2023-09-19T06:27:53;15.68;;;6.18;;
23384;SDS011;11865;45.394;10.978;2023-09-19T06:30:22;17.17;;;6.63;;
23384;SDS011;11865;45.394;10.978;2023-09-19T06:32:56;15.77;;;6.53;;
23384;SDS011;11865;45.394;10.978;2023-09-19T06:35:25;15.45;;;6.43;;
23384;SDS011;11865;45.394;10.978;2023-09-19T06:37:53;16.75;;;6.03;;
23384;SDS011;11865;45.394;10.978;2023-09-19T06:40:21;14.68;;;6.18;;
23384;SDS011;11865;45.394;10.978;2023-09-19T06:42:50;12.38;;;5.40;;
23384;SDS011;11865;45.394;10.978;2023-09-19T06:45:20;13.98;;;5.40;;
23384;SDS011;11865;45.394;10.978;2023-09-19T06:47:49;10.63;;;5.40;;
23384;SDS011;11865;45.394;10.978;2023-09-19T06:50:21;9.10;;;5.45;;
23384;SDS011;11865;45.394;10.978;2023-09-19T06:52:53;10.27;;;5.20;;
23384;SDS011;11865;45.394;10.978;2023-09-19T06:55:23;8.90;;;4.80;;
23384;SDS011;11865;45.394;10.978;2023-09-19T06:57:52;14.15;;;5.20;;
23384;SDS011;11865;45.394;10.978;2023-09-19T07:00:21;11.00;;;4.80;;
23384;SDS011;11865;45.394;10.978;2023-09-19T07:03:01;16.25;;;4.85;;
23384;SDS011;11865;45.394;10.978;2023-09-19T07:05:35;7.78;;;4.20;;
23384;SDS011;11865;45.394;10.978;2023-09-19T07:08:07;9.23;;;4.17;;
23384;SDS011;11865;45.394;10.978;2023-09-19T07:10:38;13.00;;;4.10;;
23384;SDS011;11865;45.394;10.978;2023-09-19T07:13:15;10.55;;;4.32;;
23384;SDS011;11865;45.394;10.978;2023-09-19T07:15:46;10.15;;;4.10;;
23384;SDS011;11865;45.394;10.978;2023-09-19T07:18:14;13.52;;;3.88;;
23384;SDS011;11865;45.394;10.978;2023-09-19T07:20:44;10.02;;;4.70;;
23384;SDS011;11865;45.394;10.978;2023-09-19T07:23:18;15.10;;;3.90;;
23384;SDS011;11865;45.394;10.978;2023-09-19T07:25:49;16.63;;;5.60;;
23384;SDS011;11865;45.394;10.978;2023-09-19T07:28:17;8.30;;;3.35;;
23384;SDS011;11865;45.394;10.978;2023-09-19T07:30:45;11.05;;;3.35;;
23384;SDS011;11865;45.394;10.978;2023-09-19T07:33:12;11.80;;;3.42;;
23384;SDS011;11865;45.394;10.978;2023-09-19T07:35:40;12.32;;;3.80;;
23384;SDS011;11865;45.394;10.978;2023-09-19T07:38:13;8.43;;;3.42;;
23384;SDS011;11865;45.394;10.978;2023-09-19T07:40:40;8.02;;;2.72;;
23384;SDS011;11865;45.394;10.978;2023-09-19T07:43:08;9.23;;;2.25;;
23384;SDS011;11865;45.394;10.978;2023-09-19T07:45:36;10.20;;;2.78;;
23384;SDS011;11865;45.394;10.978;2023-09-19T07:48:03;13.52;;;2.90;;
23384;SDS011;11865;45.394;10.978;2023-09-19T07:50:33;9.13;;;3.15;;
23384;SDS011;11865;45.394;10.978;2023-09-19T07:53:04;7.93;;;2.75;;
23384;SDS011;11865;45.394;10.978;2023-09-19T07:55:32;7.88;;;3.33;;
23384;SDS011;11865;45.394;10.978;2023-09-19T07:58:01;7.88;;;2.53;;
23384;SDS011;11865;45.394;10.978;2023-09-19T08:00:31;7.63;;;1.98;;
23384;SDS011;11865;45.394;10.978;2023-09-19T08:03:01;9.50;;;2.13;;
23384;SDS011;11865;45.394;10.978;2023-09-19T08:05:42;6.53;;;2.35;;
23384;SDS011;11865;45.394;10.978;2023-09-19T08:08:12;11.98;;;3.05;;
23384;SDS011;11865;45.394;10.978;2023-09-19T08:10:42;7.63;;;2.40;;
23384;SDS011;11865;45.394;10.978;2023-09-19T08:13:13;8.90;;;2.35;;
23384;SDS011;11865;45.394;10.978;2023-09-19T08:15:45;7.50;;;2.45;;
23384;SDS011;11865;45.394;10.978;2023-09-19T08:18:13;7.03;;;2.07;;
23384;SDS011;11865;45.394;10.978;2023-09-19T08:20:43;9.30;;;2.70;;
23384;SDS011;11865;45.394;10.978;2023-09-19T08:23:16;7.07;;;2.47;;
23384;SDS011;11865;45.394;10.978;2023-09-19T08:25:47;9.32;;;2.58;;
23384;SDS011;11865;45.394;10.978;2023-09-19T08:28:14;6.63;;;2.55;;
23384;SDS011;11865;45.394;10.978;2023-09-19T08:30:46;10.53;;;3.20;;
23384;SDS011;11865;45.394;10.978;2023-09-19T08:33:13;8.23;;;2.75;;
23384;SDS011;11865;45.394;10.978;2023-09-19T08:35:42;9.80;;;2.67;;
23384;SDS011;11865;45.394;10.978;2023-09-19T08:38:10;6.88;;;2.72;;
23384;SDS011;11865;45.394;10.978;2023-09-19T08:40:38;9.57;;;2.50;;
23384;SDS011;11865;45.394;10.978;2023-09-19T08:45:38;6.28;;;2.58;;
23384;SDS011;11865;45.394;10.978;2023-09-19T08:51:00;9.82;;;2.67;;
23384;SDS011;11865;45.394;10.978;2023-09-19T08:53:47;10.35;;;2.63;;
23384;SDS011;11865;45.394;10.978;2023-09-19T08:56:21;7.43;;;2.60;;
23384;SDS011;11865;45.394;10.978;2023-09-19T08:58:51;10.05;;;2.70;;
23384;SDS011;11865;45.394;10.978;2023-09-19T09:01:24;10.88;;;2.28;;
23384;SDS011;11865;45.394;10.978;2023-09-19T09:03:55;6.93;;;2.60;;
23384;SDS011;11865;45.394;10.978;2023-09-19T09:06:24;9.07;;;2.60;;
23384;SDS011;11865;45.394;10.978;2023-09-19T09:08:52;8.73;;;2.50;;
23384;SDS011;11865;45.394;10.978;2023-09-19T09:11:20;7.60;;;3.00;;
23384;SDS011;11865;45.394;10.978;2023-09-19T09:13:51;8.88;;;3.08;;
23384;SDS011;11865;45.394;10.978;2023-09-19T09:16:19;9.73;;;2.58;;
23384;SDS011;11865;45.394;10.978;2023-09-19T09:18:47;17.55;;;3.22;;
23384;SDS011;11865;45.394;10.978;2023-09-19T09:21:21;10.35;;;2.97;;
23384;SDS011;11865;45.394;10.978;2023-09-19T09:23:52;10.82;;;3.40;;
23384;SDS011;11865;45.394;10.978;2023-09-19T09:26:40;10.13;;;2.88;;
23384;SDS011;11865;45.394;10.978;2023-09-19T09:29:12;9.90;;;3.47;;
23384;SDS011;11865;45.394;10.978;2023-09-19T09:31:45;7.55;;;2.63;;
23384;SDS011;11865;45.394;10.978;2023-09-19T09:34:13;12.07;;;3.35;;
23384;SDS011;11865;45.394;10.978;2023-09-19T09:36:41;11.45;;;3.38;;
23384;SDS011;11865;45.394;10.978;2023-09-19T09:39:08;9.73;;;2.85;;
23384;SDS011;11865;45.394;10.978;2023-09-19T09:41:43;16.35;;;4.03;;
23384;SDS011;11865;45.394;10.978;2023-09-19T09:44:15;6.57;;;2.88;;
23384;SDS011;11865;45.394;10.978;2023-09-19T09:46:45;7.75;;;3.28;;
23384;SDS011;11865;45.394;10.978;2023-09-19T09:52:07;10.80;;;3.35;;
23384;SDS011;11865;45.394;10.978;2023-09-19T09:55:00;10.18;;;3.33;;
23384;SDS011;11865;45.394;10.978;2023-09-19T09:57:32;11.38;;;3.47;;
23384;SDS011;11865;45.394;10.978;2023-09-19T10:00:01;12.48;;;3.70;;
23384;SDS011;11865;45.394;10.978;2023-09-19T10:02:43;9.50;;;3.40;;
23384;SDS011;11865;45.394;10.978;2023-09-19T10:05:15;10.55;;;3.50;;
23384;SDS011;11865;45.394;10.978;2023-09-19T10:07:55;12.48;;;4.00;;
23384;SDS011;11865;45.394;10.978;2023-09-19T10:10:35;10.50;;;3.00;;
23384;SDS011;11865;45.394;10.978;2023-09-19T10:13:13;10.00;;;3.08;;
23384;SDS011;11865;45.394;10.978;2023-09-19T10:15:48;12.98;;;3.72;;
23384;SDS011;11865;45.394;10.978;2023-09-19T10:18:25;9.45;;;4.20;;
23384;SDS011;11865;45.394;10.978;2023-09-19T10:20:55;11.82;;;4.35;;
23384;SDS011;11865;45.394;10.978;2023-09-19T10:23:26;12.02;;;3.60;;
23384;SDS011;11865;45.394;10.978;2023-09-19T10:25:56;7.80;;;3.08;;
23384;SDS011;11865;45.394;10.978;2023-09-19T10:28:25;16.10;;;3.88;;
23384;SDS011;11865;45.394;10.978;2023-09-19T10:30:55;10.40;;;3.25;;
23384;SDS011;11865;45.394;10.978;2023-09-19T10:33:25;15.30;;;3.40;;
23384;SDS011;11865;45.394;10.978;2023-09-19T10:35:53;8.82;;;3.10;;
23384;SDS011;11865;45.394;10.978;2023-09-19T10:38:23;10.75;;;3.60;;
23384;SDS011;11865;45.394;10.978;2023-09-19T10:40:56;10.57;;;3.15;;
23384;SDS011;11865;45.394;10.978;2023-09-19T10:43:32;10.45;;;3.40;;
23384;SDS011;11865;45.394;10.978;2023-09-19T10:46:03;10.77;;;3.22;;
23384;SDS011;11865;45.394;10.978;2023-09-19T10:48:36;5.78;;;2.60;;
23384;SDS011;11865;45.394;10.978;2023-09-19T10:51:07;8.50;;;2.80;;
23384;SDS011;11865;45.394;10.978;2023-09-19T10:53:47;7.88;;;3.22;;
23384;SDS011;11865;45.394;10.978;2023-09-19T10:56:29;10.05;;;3.53;;
23384;SDS011;11865;45.394;10.978;2023-09-19T10:59:06;13.10;;;3.60;;
23384;SDS011;11865;45.394;10.978;2023-09-19T11:01:41;11.68;;;3.17;;
23384;SDS011;11865;45.394;10.978;2023-09-19T11:04:21;8.70;;;3.33;;
23384;SDS011;11865;45.394;10.978;2023-09-19T11:06:59;7.53;;;3.10;;
23384;SDS011;11865;45.394;10.978;2023-09-19T11:15:08;7.07;;;2.83;;
23384;SDS011;11865;45.394;10.978;2023-09-19T11:17:38;10.63;;;2.63;;
23384;SDS011;11865;45.394;10.978;2023-09-19T11:30:40;5.38;;;2.83;;
23384;SDS011;11865;45.394;10.978;2023-09-19T11:36:15;8.00;;;3.00;;
23384;SDS011;11865;45.394;10.978;2023-09-19T11:43:54;7.63;;;2.80;;
23384;SDS011;11865;45.394;10.978;2023-09-19T11:49:18;7.93;;;2.85;;
23384;SDS011;11865;45.394;10.978;2023-09-19T11:51:50;8.93;;;3.40;;
23384;SDS011;11865;45.394;10.978;2023-09-19T11:54:19;10.18;;;3.15;;
23384;SDS011;11865;45.394;10.978;2023-09-19T11:56:49;7.88;;;3.00;;
23384;SDS011;11865;45.394;10.978;2023-09-19T11:59:21;7.88;;;2.88;;
23384;SDS011;11865;45.394;10.978;2023-09-19T12:01:50;9.18;;;2.50;;
23384;SDS011;11865;45.394;10.978;2023-09-19T12:07:10;8.35;;;3.42;;
23384;SDS011;11865;45.394;10.978;2023-09-19T12:09:47;9.00;;;3.10;;
23384;SDS011;11865;45.394;10.978;2023-09-19T12:12:22;7.07;;;3.35;;
23384;SDS011;11865;45.394;10.978;2023-09-19T12:14:50;6.93;;;3.15;;
23384;SDS011;11865;45.394;10.978;2023-09-19T12:17:18;11.13;;;2.72;;
23384;SDS011;11865;45.394;10.978;2023-09-19T12:19:53;7.30;;;3.50;;
23384;SDS011;11865;45.394;10.978;2023-09-19T12:22:23;11.60;;;3.53;;
23384;SDS011;11865;45.394;10.978;2023-09-19T12:24:52;12.50;;;3.20;;
23384;SDS011;11865;45.394;10.978;2023-09-19T12:27:21;11.75;;;3.25;;
23384;SDS011;11865;45.394;10.978;2023-09-19T12:29:49;8.25;;;3.47;;
23384;SDS011;11865;45.394;10.978;2023-09-19T12:32:36;12.38;;;3.50;;
23384;SDS011;11865;45.394;10.978;2023-09-19T12:35:07;11.57;;;3.30;;
23384;SDS011;11865;45.394;10.978;2023-09-19T12:37:42;9.15;;;3.35;;
23384;SDS011;11865;45.394;10.978;2023-09-19T12:40:15;11.13;;;3.40;;
23384;SDS011;11865;45.394;10.978;2023-09-19T12:42:44;10.93;;;3.63;;
23384;SDS011;11865;45.394;10.978;2023-09-19T12:45:13;9.20;;;3.63;;
23384;SDS011;11865;45.394;10.978;2023-09-19T12:53:43;9.65;;;3.47;;
23384;SDS011;11865;45.394;10.978;2023-09-19T12:56:17;12.18;;;3.53;;
23384;SDS011;11865;45.394;10.978;2023-09-19T12:58:55;10.82;;;3.80;;
23384;SDS011;11865;45.394;10.978;2023-09-19T13:01:28;14.07;;;3.72;;
23384;SDS011;11865;45.394;10.978;2023-09-19T13:06:48;10.15;;;4.05;;
23384;SDS011;11865;45.394;10.978;2023-09-19T13:09:18;14.77;;;4.28;;
23384;SDS011;11865;45.394;10.978;2023-09-19T13:11:47;9.27;;;3.83;;
23384;SDS011;11865;45.394;10.978;2023-09-19T13:25:09;9.90;;;4.00;;
23384;SDS011;11865;45.394;10.978;2023-09-19T13:27:42;12.88;;;4.35;;
23384;SDS011;11865;45.394;10.978;2023-09-19T13:30:12;13.68;;;4.18;;
23384;SDS011;11865;45.394;10.978;2023-09-19T13:32:41;12.57;;;4.13;;
23384;SDS011;11865;45.394;10.978;2023-09-19T13:35:11;7.25;;;3.78;;
23384;SDS011;11865;45.394;10.978;2023-09-19T13:37:39;9.82;;;3.08;;
23384;SDS011;11865;45.394;10.978;2023-09-19T13:40:12;11.05;;;4.22;;
23384;SDS011;11865;45.394;10.978;2023-09-19T13:42:41;8.20;;;3.25;;
23384;SDS011;11865;45.394;10.978;2023-09-19T13:45:09;13.02;;;3.97;;
23384;SDS011;11865;45.394;10.978;2023-09-19T13:47:40;11.63;;;3.63;;
23384;SDS011;11865;45.394;10.978;2023-09-19T13:50:08;8.77;;;3.30;;
23384;SDS011;11865;45.394;10.978;2023-09-19T13:52:36;7.63;;;3.47;;
23384;SDS011;11865;45.394;10.978;2023-09-19T13:55:05;13.02;;;4.07;;
23384;SDS011;11865;45.394;10.978;2023-09-19T13:57:34;8.88;;;3.60;;
23384;SDS011;11865;45.394;10.978;2023-09-19T14:00:01;15.35;;;3.53;;
23384;SDS011;11865;45.394;10.978;2023-09-19T14:02:37;11.80;;;3.42;;
23384;SDS011;11865;45.394;10.978;2023-09-19T14:05:06;7.95;;;3.55;;
23384;SDS011;11865;45.394;10.978;2023-09-19T14:07:34;11.65;;;3.30;;
23384;SDS011;11865;45.394;10.978;2023-09-19T14:10:02;8.93;;;3.42;;
23384;SDS011;11865;45.394;10.978;2023-09-19T14:12:30;8.07;;;3.38;;
23384;SDS011;11865;45.394;10.978;2023-09-19T14:14:59;10.32;;;3.60;;
23384;SDS011;11865;45.394;10.978;2023-09-19T14:17:26;6.70;;;3.40;;
23384;SDS011;11865;45.394;10.978;2023-09-19T14:19:55;12.85;;;4.15;;
23384;SDS011;11865;45.394;10.978;2023-09-19T14:22:22;7.78;;;3.10;;
23384;SDS011;11865;45.394;10.978;2023-09-19T14:24:50;7.82;;;3.05;;
23384;SDS011;11865;45.394;10.978;2023-09-19T14:27:18;9.45;;;3.03;;
23384;SDS011;11865;45.394;10.978;2023-09-19T14:29:46;11.90;;;3.55;;
23384;SDS011;11865;45.394;10.978;2023-09-19T14:32:13;12.88;;;3.53;;
23384;SDS011;11865;45.394;10.978;2023-09-19T14:34:41;10.05;;;3.33;;
23384;SDS011;11865;45.394;10.978;2023-09-19T14:37:10;6.10;;;2.85;;
23384;SDS011;11865;45.394;10.978;2023-09-19T14:39:40;7.32;;;3.35;;
23384;SDS011;11865;45.394;10.978;2023-09-19T14:42:11;11.73;;;3.30;;
23384;SDS011;11865;45.394;10.978;2023-09-19T14:44:41;7.35;;;3.13;;
23384;SDS011;11865;45.394;10.978;2023-09-19T14:47:09;8.38;;;2.78;;
23384;SDS011;11865;45.394;10.978;2023-09-19T14:49:40;6.90;;;3.00;;
23384;SDS011;11865;45.394;10.978;2023-09-19T14:52:09;15.73;;;3.25;;
23384;SDS011;11865;45.394;10.978;2023-09-19T14:54:39;8.15;;;3.10;;
23384;SDS011;11865;45.394;10.978;2023-09-19T14:57:08;8.15;;;2.60;;
23384;SDS011;11865;45.394;10.978;2023-09-19T14:59:37;10.30;;;2.85;;
23384;SDS011;11865;45.394;10.978;2023-09-19T15:02:04;10.10;;;3.08;;
23384;SDS011;11865;45.394;10.978;2023-09-19T15:04:32;11.10;;;2.78;;
23384;SDS011;11865;45.394;10.978;2023-09-19T15:07:00;6.22;;;2.55;;
23384;SDS011;11865;45.394;10.978;2023-09-19T15:09:29;7.68;;;2.60;;
23384;SDS011;11865;45.394;10.978;2023-09-19T15:11:59;7.03;;;3.22;;
23384;SDS011;11865;45.394;10.978;2023-09-19T15:14:26;8.10;;;2.70;;
23384;SDS011;11865;45.394;10.978;2023-09-19T15:16:56;7.18;;;2.78;;
23384;SDS011;11865;45.394;10.978;2023-09-19T15:19:24;11.18;;;2.80;;
23384;SDS011;11865;45.394;10.978;2023-09-19T15:21:51;8.27;;;3.25;;
23384;SDS011;11865;45.394;10.978;2023-09-19T15:24:19;6.85;;;2.65;;
23384;SDS011;11865;45.394;10.978;2023-09-19T15:26:47;6.93;;;2.47;;
23384;SDS011;11865;45.394;10.978;2023-09-19T15:29:14;7.38;;;2.42;;
23384;SDS011;11865;45.394;10.978;2023-09-19T15:31:43;5.93;;;2.30;;
23384;SDS011;11865;45.394;10.978;2023-09-19T15:34:10;8.98;;;2.55;;
23384;SDS011;11865;45.394;10.978;2023-09-19T15:36:41;9.40;;;2.60;;
23384;SDS011;11865;45.394;10.978;2023-09-19T15:39:09;6.97;;;2.40;;
23384;SDS011;11865;45.394;10.978;2023-09-19T15:41:44;6.15;;;2.70;;
23384;SDS011;11865;45.394;10.978;2023-09-19T15:44:15;5.00;;;2.67;;
23384;SDS011;11865;45.394;10.978;2023-09-19T15:46:43;9.80;;;2.42;;
23384;SDS011;11865;45.394;10.978;2023-09-19T15:49:12;5.47;;;2.70;;
23384;SDS011;11865;45.394;10.978;2023-09-19T15:51:40;8.25;;;2.58;;
23384;SDS011;11865;45.394;10.978;2023-09-19T15:54:08;6.28;;;2.60;;
23384;SDS011;11865;45.394;10.978;2023-09-19T15:56:37;10.55;;;2.50;;
23384;SDS011;11865;45.394;10.978;2023-09-19T15:59:08;9.75;;;2.90;;
23384;SDS011;11865;45.394;10.978;2023-09-19T16:01:37;4.72;;;2.67;;
23384;SDS011;11865;45.394;10.978;2023-09-19T16:04:05;6.47;;;2.30;;
23384;SDS011;11865;45.394;10.978;2023-09-19T16:06:36;9.60;;;3.05;;